Ana Sayfa
METAR-TAF:

METAR-TAF

Havaalanları :

Houston / Conroe, Teksas, Amerika Birleşik Devletleri

Enlem: 30-21-24N, Boylam: 095-24-50W, yükseklik: 74 m

Güncel hava durumu gözlemi

Rapor saat 21:53 UTC de 13 dakika önce yapıldı.
Sakin rüzgar
Sıcaklık 16°C
Nem 42%
Basınç 1021 hPa
Görüş mesafesi: 16.1 km
Açık gökyüzü

METAR: KCXO 162153Z 00000KT 10SM CLR 16/03 A3014 RMK AO2 SLP205 T01560033

Saat: 16:06 (22:06 UTC)

Tahmin

Rapor saat 17:20 UTC de 4 saat ve 46 dakika önce yapıldı.
Ayın 16'si saat 18 UTC'den ayın 17'si saat 18 UTC'ye kadar geçerli Tahmin
Rüzgar değişken yönden 5 kt
Görüş mesafesi: 10 km
Açık gökyüzü
Ayın 17'si saat 1000 UTC'den
Rüzgar kuzeydan kt
Görüş mesafesi: 9.7 km
Açık gökyüzü
Pus
Ayın 17'si saat 1500 UTC'den
Rüzgar güney/güneydoğudan 5 kt
Görüş mesafesi: 10 km
Açık gökyüzü

TAF: KCXO 161720Z 1618/1718 VRB05KT P6SM SKC FM171000 00000KT 6SM BR SKC FM171500 16005KT P6SM SKC

4.000'den fazla havaalanı için hava durumu gözlemleri ve tahminleri (METAR ve TAF raporları).

Kullanılabilir istasyonlar harita üzerinde sarı ve kırmızı noktalarla gösterilir.

İstasyonun adını görmek için fareyi noktanın üzerinde gezdirin.

Sonrasında hava gözlem ve tahminlerini görmek için tıklayın.

Haritayı değiştirmek için: yaklaştırmak için siyah artı işaretli yeşil düğmeye ve uzaklaştırmak için de eksi işaretli düğmeye hızla tıklayın; bitişik haritalar için yeşil okları kullanın.


METAR-TAF: